Time;durP1;ratioP1;P1;durP2;ratioP2;P2;SDS_P1;SDS_P2;PMS_P1;PMS_P2;Temp;Humidity;BMP_temperature;BMP_pressure;BME280_temperature;BME280_humidity;BME280_pressure;Samples;Min_cycle;Max_cycle;Signal;HPM_P1;HPM_P2
2022/12/28 06:05:50;;;;;;;1.63;0.70;;;;;;;-145.06;100.00;60892.56;5903182;23;20033;-94
2022/12/28 06:12:11;;;;;;;;;;;;;;;;;;;;;
2022/12/28 06:14:50;;;;;;;1.83;0.73;;;;;;;-145.06;100.00;60892.56;5903382;23;20038;-92
2022/12/28 06:17:29;;;;;;;1.03;0.30;;;;;;;-145.06;100.00;60892.56;5871572;23;20006;-90
2022/12/28 06:20:37;;;;;;;1.83;0.65;;;;;;;-145.06;100.00;60892.56;5872252;23;20038;-91
2022/12/28 06:23:34;;;;;;;0.98;0.60;;;;;;;-145.06;100.00;60892.56;5903951;23;20430;-93
2022/12/28 14:47:33;;;;;;;1.17;0.60;;;;;;;-145.06;100.00;60892.56;5922771;23;20100;-89
2022/12/28 15:12:59;;;;;;;;;;;;;;;;;;;;;
2022/12/28 15:19:58;;;;;;;0.70;0.60;;;;;;;-145.06;100.00;60892.56;5854329;23;20004;-90
2022/12/28 15:26:29;;;;;;;;;;;;;;;;;;;;;
2022/12/28 15:29:52;;;;;;;0.40;0.40;;;;;;;-145.06;100.00;60892.56;5934225;23;20014;-90
2022/12/28 15:33:10;;;;;;;0.93;0.70;;;;;;;-145.06;100.00;60892.56;5902224;23;20006;-92
2022/12/28 15:36:25;;;;;;;0.60;0.40;;;;;;;-145.06;100.00;60892.56;5923312;23;20014;-91
2022/12/28 15:39:10;;;;;;;0.52;0.50;;;;;;;-145.06;100.00;60892.56;5902970;23;20002;-92
2022/12/28 15:42:33;;;;;;;1.65;0.80;;;;;;;-145.06;100.00;60892.56;5902640;23;20440;-91
2022/12/28 15:45:47;;;;;;;0.70;0.50;;;;;;;-145.06;100.00;60892.56;5902573;23;20005;-91
2022/12/28 16:14:14;;;;;;;0.95;0.50;;;;;;;-145.06;100.00;60892.56;5922707;23;20034;-91
2022/12/28 16:16:52;;;;;;;1.52;0.60;;;;;;;-145.06;100.00;60892.56;5900050;23;20606;-92
2022/12/28 16:19:40;;;;;;;0.60;0.40;;;;;;;-145.06;100.00;60892.56;5900967;23;20010;-92
2022/12/28 16:22:20;;;;;;;0.70;0.57;;;;;;;-145.06;100.00;60892.56;5901825;23;20002;-92
2022/12/28 16:24:59;;;;;;;0.65;0.50;;;;;;;-145.06;100.00;60892.56;5901281;23;20005;-91
2022/12/28 16:27:39;;;;;;;0.85;0.52;;;;;;;-145.06;100.00;60892.56;5900712;23;20029;-91
2022/12/28 16:30:18;;;;;;;0.60;0.60;;;;;;;-145.06;100.00;60892.56;5899537;23;20025;-92
2022/12/28 16:33:05;;;;;;;0.43;0.40;;;;;;;-145.06;100.00;60892.56;5899697;23;20309;-92
2022/12/28 16:35:47;;;;;;;0.60;0.43;;;;;;;-145.06;100.00;60892.56;5922505;23;20021;-91
2022/12/28 16:38:27;;;;;;;0.65;0.50;;;;;;;-145.06;100.00;60892.56;5899906;23;20010;-91
2022/12/28 16:41:19;;;;;;;0.60;0.40;;;;;;;-145.06;100.00;60892.56;5900702;23;20006;-91
2022/12/28 16:44:05;;;;;;;0.80;0.40;;;;;;;-145.06;100.00;60892.56;5901513;23;20010;-91
2022/12/28 16:46:47;;;;;;;1.23;0.60;;;;;;;-145.06;100.00;60892.56;5899829;23;20006;-91
2022/12/28 16:49:28;;;;;;;0.50;0.50;;;;;;;-145.06;100.00;60892.56;5900341;23;20033;-92
2022/12/28 16:52:07;;;;;;;2.03;0.63;;;;;;;-145.06;100.00;60892.56;5900795;23;20006;-91
2022/12/28 16:54:47;;;;;;;0.77;0.60;;;;;;;-145.06;100.00;60892.56;5900124;23;20042;-91
2022/12/28 16:57:26;;;;;;;1.83;0.98;;;;;;;-145.06;100.00;60892.56;5899948;23;20436;-91
2022/12/28 17:00:13;;;;;;;0.83;0.70;;;;;;;-145.06;100.00;60892.56;5899982;23;20030;-91
2022/12/28 17:02:52;;;;;;;0.85;0.60;;;;;;;-145.06;100.00;60892.56;5899258;23;20250;-91
2022/12/28 17:05:33;;;;;;;1.00;0.70;;;;;;;-145.06;100.00;60892.56;5931736;23;20018;-90
2022/12/28 17:08:21;;;;;;;0.70;0.50;;;;;;;-145.06;100.00;60892.56;5903521;23;20428;-91
2022/12/28 17:11:16;;;;;;;1.40;0.80;;;;;;;-145.06;100.00;60892.56;5906727;23;20010;-91
2022/12/28 17:20:24;;;;;;;1.92;0.70;;;;;;;-145.06;100.00;60892.56;5923187;23;20322;-91
2022/12/28 17:23:13;;;;;;;0.82;0.50;;;;;;;-145.06;100.00;60892.56;5905163;23;20013;-90
2022/12/28 17:25:55;;;;;;;0.90;0.57;;;;;;;-145.06;100.00;60892.56;5901887;23;20014;-91
2022/12/28 17:28:35;;;;;;;0.90;0.55;;;;;;;-145.06;100.00;60892.56;5874078;23;20006;-90
2022/12/28 17:31:17;;;;;;;0.50;0.40;;;;;;;-145.06;100.00;60892.56;5873200;23;20030;-91
2022/12/28 17:33:58;;;;;;;1.30;0.80;;;;;;;-145.06;100.00;60892.56;5870042;23;20432;-91
2022/12/28 17:37:16;;;;;;;0.50;0.50;;;;;;;-145.06;100.00;60892.56;5872319;23;20006;-90
2022/12/28 17:40:22;;;;;;;1.27;0.70;;;;;;;-145.06;100.00;60892.56;5856633;23;20006;-91
2022/12/28 17:43:04;;;;;;;1.02;0.52;;;;;;;-145.06;100.00;60892.56;5870167;23;20255;-90
2022/12/28 17:46:12;;;;;;;0.57;0.50;;;;;;;-145.06;100.00;60892.56;5870985;23;20010;-91
2022/12/28 17:48:55;;;;;;;0.82;0.52;;;;;;;-145.06;100.00;60892.56;5871689;23;20006;-90
2022/12/28 17:51:35;;;;;;;0.80;0.50;;;;;;;-145.06;100.00;60892.56;5870146;23;20006;-90
2022/12/28 17:54:14;;;;;;;1.13;0.52;;;;;;;-145.06;100.00;60892.56;5871542;23;20010;-90
2022/12/28 17:56:54;;;;;;;0.65;0.40;;;;;;;-145.06;100.00;60892.56;5871031;23;20002;-92
2022/12/28 17:59:47;;;;;;;0.67;0.60;;;;;;;-145.06;100.00;60892.56;5872661;23;20011;-93
2022/12/28 18:02:30;;;;;;;0.98;0.50;;;;;;;-145.06;100.00;60892.56;5871501;23;20002;-92
2022/12/28 18:08:29;;;;;;;0.40;0.40;;;;;;;-145.06;100.00;60892.56;5909937;23;20022;-88
2022/12/28 18:11:12;;;;;;;1.45;0.70;;;;;;;-145.06;100.00;60892.56;5891085;23;20010;-91
2022/12/28 18:13:54;;;;;;;1.35;0.60;;;;;;;-145.06;100.00;60892.56;5899160;23;20089;-91
2022/12/28 18:16:35;;;;;;;0.80;0.40;;;;;;;-145.06;100.00;60892.56;5898865;23;20010;-90
2022/12/28 18:44:45;;;;;;;0.50;0.50;;;;;;;-145.06;100.00;60892.56;5786763;24;20008;-91
2022/12/28 18:47:24;;;;;;;0.57;0.40;;;;;;;-145.06;100.00;60892.56;5760486;23;20004;-90
2022/12/28 18:50:37;;;;;;;0.63;0.52;;;;;;;-145.06;100.00;60892.56;5869878;23;20002;-91
2022/12/28 18:53:28;;;;;;;0.50;0.40;;;;;;;-145.06;100.00;60892.56;5871134;23;20006;-92
2022/12/28 19:03:49;;;;;;;0.73;0.50;;;;;;;-145.06;100.00;60892.56;5710418;24;20012;-92
2022/12/28 19:06:38;;;;;;;0.40;0.40;;;;;;;-145.06;100.00;60892.56;5733276;24;20012;-93
2022/12/28 19:12:30;;;;;;;0.60;0.40;;;;;;;-145.06;100.00;60892.56;5762625;24;20001;-91
2022/12/28 19:15:10;;;;;;;;;;;;;;;-145.06;100.00;60892.56;5775937;23;20493;-92
2022/12/28 19:17:54;;;;;;;0.80;0.40;;;;;;;-145.06;100.00;60892.56;5873999;23;20317;-92
2022/12/28 19:21:33;;;;;;;;;;;;;;;;;;;;;
2022/12/28 19:24:31;;;;;;;0.43;0.40;;;;;;;-145.06;100.00;60892.56;5904031;23;20026;-93
2022/12/28 19:32:18;;;;;;;0.70;0.40;;;;;;;-145.06;100.00;60892.56;5918434;23;20018;-91
2022/12/28 19:35:07;;;;;;;0.70;0.40;;;;;;;-145.06;100.00;60892.56;5899937;23;20006;-89
2022/12/28 19:45:59;;;;;;;0.50;0.45;;;;;;;-145.06;100.00;60892.56;5818843;23;20012;-91
2022/12/28 19:52:15;;;;;;;0.40;0.40;;;;;;;-145.06;100.00;60892.56;5765828;24;20013;-91
2022/12/28 19:55:03;;;;;;;0.45;0.40;;;;;;;-145.06;100.00;60892.56;5736505;24;20064;-90
2022/12/28 20:46:02;;;;;;;;;;;;;;;;;;;;;
2022/12/28 20:48:41;;;;;;;0.55;0.30;;;;;;;-145.06;100.00;60892.56;5750048;23;20016;-94
2022/12/28 20:51:20;;;;;;;0.65;0.32;;;;;;;-145.06;100.00;60892.56;5896862;23;20002;-90
2022/12/28 20:54:02;;;;;;;0.20;0.20;;;;;;;-145.06;100.00;60892.56;5930455;23;20005;-91
2022/12/28 20:56:54;;;;;;;0.30;0.30;;;;;;;-145.06;100.00;60892.56;5896452;23;20009;-94
2022/12/28 21:00:31;;;;;;;0.40;0.32;;;;;;;-145.06;100.00;60892.56;5898875;23;20377;-95
2022/12/28 21:03:21;;;;;;;0.40;0.30;;;;;;;-145.06;100.00;60892.56;5870668;23;20034;-93
